EGPB

Sumburgh Airport

Lerwick, United Kingdom
METAR EGPB 211520Z 17007KT 9999 FEW015 09/06 Q1017
Observed Flight Rules
Apr-21 @ 15:20 UTC (20 minutes ago) Visual Flight Rules
Wind Visibility Clouds
170° at 7 knots 10,000+ meters
  • Few at 1,500' AGL
Temperatures Readings
Current 9°C / 48°F
Dewpoint 6°C / 43°F
Humidity 82%
Altimeter 30.03" Hg
Pressure 1017 hPa
Elevation 5
METAR EGPB 211520Z 17007KT 9999 FEW015 09/06 Q1017
Observed Flight Rules
Apr-21 @ 15:20 UTC
(20 minutes ago)
VFR
Wind Visibility
170° at 7 knots 10,000+ meters
Clouds
  • Few at 1,500' AGL
Temperature Dewpoint
9°C / 48°F 6°C / 43°F
Humidity Altimeter Pressure
82% 30.03" Hg 1017 hPa